createdAt,value
2018-01-10T00:01:38.281Z,996.38
2018-01-10T00:02:38.271Z,996.40
2018-01-10T00:04:32.679Z,996.43
2018-01-10T00:05:32.627Z,996.41
2018-01-10T00:07:27.180Z,996.45
2018-01-10T00:08:27.080Z,996.41
2018-01-10T00:10:21.451Z,996.49
2018-01-10T00:11:21.442Z,996.49
2018-01-10T00:13:15.946Z,996.48
2018-01-10T00:14:15.839Z,996.50
2018-01-10T00:16:10.203Z,996.49
2018-01-10T00:17:10.192Z,996.49
2018-01-10T00:19:04.846Z,996.57
2018-01-10T00:20:04.538Z,996.55
2018-01-10T00:21:58.904Z,996.60
2018-01-10T00:22:58.892Z,996.58
2018-01-10T00:24:53.345Z,996.61
2018-01-10T00:25:53.247Z,996.66
2018-01-10T00:27:47.611Z,996.62
2018-01-10T00:28:47.606Z,996.64
2018-01-10T00:30:42.052Z,996.62
2018-01-10T00:31:41.956Z,996.59
2018-01-10T00:33:36.382Z,996.58
2018-01-10T00:34:36.300Z,996.60
2018-01-10T00:36:30.664Z,996.53
2018-01-10T00:37:30.652Z,996.59
2018-01-10T00:39:25.060Z,996.56
2018-01-10T00:40:25.001Z,996.58
2018-01-10T00:42:19.355Z,996.54
2018-01-10T00:43:19.343Z,996.56
2018-01-10T00:45:13.757Z,996.49
2018-01-10T00:46:13.702Z,996.48
2018-01-10T00:48:08.154Z,996.48
2018-01-10T00:49:08.059Z,996.43
2018-01-10T00:51:02.418Z,996.50
2018-01-10T00:52:02.407Z,996.46
2018-01-10T00:53:56.828Z,996.45
2018-01-10T00:54:56.767Z,996.44
2018-01-10T00:56:51.136Z,996.45
2018-01-10T00:57:51.126Z,996.44
2018-01-10T00:59:45.569Z,996.44
2018-01-10T01:00:45.478Z,996.45
2018-01-10T01:02:39.896Z,996.42
2018-01-10T01:03:39.834Z,996.45
2018-01-10T01:05:34.198Z,996.45
2018-01-10T01:06:34.190Z,996.50
2018-01-10T01:08:28.644Z,996.56
2018-01-10T01:09:28.531Z,996.59
2018-01-10T01:11:22.899Z,996.57
2018-01-10T01:12:22.888Z,996.57
2018-01-10T01:14:17.365Z,996.61
2018-01-10T01:15:17.329Z,996.65
2018-01-10T01:17:11.606Z,996.68
2018-01-10T01:18:11.596Z,996.69
2018-01-10T01:20:06.010Z,996.75
2018-01-10T01:21:05.960Z,996.74
2018-01-10T01:23:00.565Z,996.70
2018-01-10T01:24:00.314Z,996.72
2018-01-10T01:25:54.673Z,996.79
2018-01-10T01:26:54.660Z,996.74
2018-01-10T01:28:49.119Z,996.78
2018-01-10T01:29:49.018Z,996.77
2018-01-10T01:31:44.010Z,996.72
2018-01-10T01:32:43.439Z,996.70
2018-01-10T01:34:37.957Z,996.67
2018-01-10T01:35:37.728Z,996.69
2018-01-10T01:37:32.092Z,996.66
2018-01-10T01:38:32.076Z,996.63
2018-01-10T01:40:26.492Z,996.64
2018-01-10T01:41:26.436Z,996.61
2018-01-10T01:43:20.822Z,996.61
2018-01-10T01:44:20.780Z,996.63
2018-01-10T01:46:15.258Z,996.65
2018-01-10T01:47:15.149Z,996.66
2018-01-10T01:49:09.501Z,996.67
2018-01-10T01:50:09.487Z,996.68
2018-01-10T01:52:03.898Z,996.68
2018-01-10T01:53:03.844Z,996.73
2018-01-10T01:54:58.212Z,996.70
2018-01-10T01:55:58.203Z,996.70
2018-01-10T01:57:52.617Z,996.70
2018-01-10T01:58:52.565Z,996.66
2018-01-10T02:00:46.947Z,996.70
2018-01-10T02:01:46.918Z,996.75
2018-01-10T02:03:41.373Z,996.79
2018-01-10T02:04:41.272Z,996.80
2018-01-10T02:06:35.677Z,996.82
2018-01-10T02:07:35.626Z,996.83
2018-01-10T02:09:30.002Z,996.86
2018-01-10T02:10:29.990Z,996.84
2018-01-10T02:12:24.517Z,996.84
2018-01-10T02:13:24.343Z,996.82
2018-01-10T02:15:18.707Z,996.84
2018-01-10T02:16:18.699Z,996.80
2018-01-10T02:18:13.145Z,996.82
2018-01-10T02:19:13.050Z,996.80
2018-01-10T02:21:07.500Z,996.74
2018-01-10T02:22:07.394Z,996.74
2018-01-10T02:24:01.760Z,996.75
2018-01-10T02:25:01.750Z,996.71
2018-01-10T02:26:56.151Z,996.72
2018-01-10T02:27:56.093Z,996.68
2018-01-10T02:29:50.463Z,996.70
2018-01-10T02:30:50.468Z,996.67
2018-01-10T02:32:44.860Z,996.58
2018-01-10T02:33:44.809Z,996.55
2018-01-10T02:35:39.173Z,996.54
2018-01-10T02:36:39.161Z,996.52
2018-01-10T02:38:33.821Z,996.54
2018-01-10T02:39:33.536Z,996.54
2018-01-10T02:41:27.901Z,996.56
2018-01-10T02:42:27.890Z,996.57
2018-01-10T02:44:22.297Z,996.55
2018-01-10T02:45:22.234Z,996.58
2018-01-10T02:47:16.600Z,996.57
2018-01-10T02:48:16.588Z,996.54
2018-01-10T02:50:11.008Z,996.59
2018-01-10T02:51:10.943Z,996.57
2018-01-10T02:53:05.310Z,996.51
2018-01-10T02:54:05.300Z,996.51
2018-01-10T02:55:59.753Z,996.59
2018-01-10T02:56:59.655Z,996.65
2018-01-10T02:58:56.000Z,996.57
2018-01-10T02:59:55.990Z,996.55
2018-01-10T03:00:57.051Z,996.58
2018-01-10T03:01:55.974Z,996.65
2018-01-10T03:02:55.968Z,996.64
2018-01-10T03:03:55.960Z,996.64
2018-01-10T03:04:55.953Z,996.65
2018-01-10T03:05:55.945Z,996.61
2018-01-10T03:06:55.940Z,996.63
2018-01-10T03:07:55.931Z,996.65
2018-01-10T03:08:55.928Z,996.63
2018-01-10T03:09:55.920Z,996.61
2018-01-10T03:10:55.912Z,996.61
2018-01-10T03:11:55.908Z,996.59
2018-01-10T03:12:55.898Z,996.53
2018-01-10T03:13:55.914Z,996.55
2018-01-10T03:14:55.882Z,996.51
2018-01-10T03:15:55.875Z,996.46
2018-01-10T03:16:55.868Z,996.55
2018-01-10T03:17:55.866Z,996.51
2018-01-10T03:18:55.854Z,996.51
2018-01-10T03:19:55.848Z,996.53
2018-01-10T03:20:55.840Z,996.54
2018-01-10T03:21:55.832Z,996.57
2018-01-10T03:22:55.827Z,996.53
2018-01-10T03:23:55.821Z,996.55
2018-01-10T03:24:55.811Z,996.56
2018-01-10T03:25:55.805Z,996.50
2018-01-10T03:26:55.798Z,996.45
2018-01-10T03:27:55.792Z,996.48
2018-01-10T03:28:55.792Z,996.46
2018-01-10T03:29:55.781Z,996.48
2018-01-10T03:30:55.770Z,996.43
2018-01-10T03:31:55.772Z,996.43
2018-01-10T03:32:55.855Z,996.44
2018-01-10T03:33:55.748Z,996.43
2018-01-10T03:34:55.740Z,996.44
2018-01-10T03:35:55.733Z,996.40
2018-01-10T03:36:55.726Z,996.43
2018-01-10T03:37:55.717Z,996.45
2018-01-10T03:38:55.712Z,996.47
2018-01-10T03:39:55.704Z,996.48
2018-01-10T03:40:55.697Z,996.43
2018-01-10T03:41:55.690Z,996.42
2018-01-10T03:42:55.684Z,996.43
2018-01-10T03:43:55.675Z,996.47
2018-01-10T03:44:55.668Z,996.45
2018-01-10T03:45:55.663Z,996.42
2018-01-10T03:46:55.656Z,996.47
2018-01-10T03:47:55.648Z,996.45
2018-01-10T03:48:55.639Z,996.42
2018-01-10T03:49:55.634Z,996.45
2018-01-10T03:50:55.627Z,996.46
2018-01-10T03:51:55.619Z,996.41
2018-01-10T03:52:55.611Z,996.43
2018-01-10T03:53:55.605Z,996.45
2018-01-10T03:54:55.599Z,996.49
2018-01-10T03:55:55.589Z,996.47
2018-01-10T03:56:55.582Z,996.46
2018-01-10T03:57:55.575Z,996.48
2018-01-10T03:58:55.795Z,996.47
2018-01-10T03:59:55.560Z,996.50
2018-01-10T04:00:55.557Z,996.48
2018-01-10T04:01:55.548Z,996.49
2018-01-10T04:02:55.540Z,996.48
2018-01-10T04:03:55.534Z,996.47
2018-01-10T04:04:55.568Z,996.47
2018-01-10T04:05:55.518Z,996.42
2018-01-10T04:06:55.511Z,996.39
2018-01-10T04:07:55.503Z,996.41
2018-01-10T04:08:55.496Z,996.39
2018-01-10T04:09:55.491Z,996.39
2018-01-10T04:10:55.483Z,996.40
2018-01-10T04:11:55.480Z,996.36
2018-01-10T04:12:55.469Z,996.41
2018-01-10T04:13:55.461Z,996.37
2018-01-10T04:14:55.457Z,996.36
2018-01-10T04:15:55.450Z,996.36
2018-01-10T04:16:55.440Z,996.33
2018-01-10T04:17:55.433Z,996.32
2018-01-10T04:18:55.478Z,996.29
2018-01-10T04:19:55.409Z,996.28
2018-01-10T04:20:55.401Z,996.26
2018-01-10T04:21:55.394Z,996.26
2018-01-10T04:22:55.406Z,996.28
2018-01-10T04:23:55.378Z,996.29
2018-01-10T04:24:55.371Z,996.30
2018-01-10T04:25:55.365Z,996.31
2018-01-10T04:26:55.357Z,996.36
2018-01-10T04:27:55.348Z,996.33
2018-01-10T04:28:55.342Z,996.27
2018-01-10T04:29:55.335Z,996.30
2018-01-10T04:30:55.329Z,996.27
2018-01-10T04:31:55.325Z,996.24
2018-01-10T04:32:55.312Z,996.24
2018-01-10T04:33:56.004Z,996.24
2018-01-10T04:34:55.310Z,996.24
2018-01-10T04:35:55.302Z,996.23
2018-01-10T04:36:55.283Z,996.22
2018-01-10T04:37:55.277Z,996.19
2018-01-10T04:38:55.270Z,996.22
2018-01-10T04:39:55.261Z,996.21
2018-01-10T04:40:55.256Z,996.24
2018-01-10T04:41:55.248Z,996.24
2018-01-10T04:42:55.241Z,996.30
2018-01-10T04:43:55.235Z,996.30
2018-01-10T04:44:55.228Z,996.28
2018-01-10T04:45:55.220Z,996.28
2018-01-10T04:46:55.212Z,996.27
2018-01-10T04:47:55.204Z,996.32
2018-01-10T04:48:55.197Z,996.27
2018-01-10T04:49:55.190Z,996.28
2018-01-10T04:50:55.186Z,996.25
2018-01-10T04:51:55.175Z,996.26
2018-01-10T04:52:55.170Z,996.23
2018-01-10T04:53:55.164Z,996.28
2018-01-10T04:54:55.156Z,996.24
2018-01-10T04:55:55.147Z,996.25
2018-01-10T04:56:55.141Z,996.26
2018-01-10T04:57:55.133Z,996.28
2018-01-10T04:58:55.127Z,996.27
2018-01-10T04:59:55.120Z,996.29
2018-01-10T05:00:55.106Z,996.33
2018-01-10T05:01:55.096Z,996.32
2018-01-10T05:02:55.091Z,996.32
2018-01-10T05:03:55.084Z,996.32
2018-01-10T05:04:55.077Z,996.32
2018-01-10T05:05:55.068Z,996.33
2018-01-10T05:06:55.067Z,996.32
2018-01-10T05:07:55.054Z,996.35
2018-01-10T05:08:55.046Z,996.35
2018-01-10T05:09:55.045Z,996.37
2018-01-10T05:10:55.033Z,996.41
2018-01-10T05:11:55.029Z,996.36
2018-01-10T05:12:55.021Z,996.40
2018-01-10T05:13:55.012Z,996.41
2018-01-10T05:14:55.005Z,996.44
2018-01-10T05:15:54.997Z,996.41
2018-01-10T05:16:54.988Z,996.37
2018-01-10T05:17:54.983Z,996.40
2018-01-10T05:18:54.980Z,996.39
2018-01-10T05:19:54.968Z,996.37
2018-01-10T05:20:54.961Z,996.37
2018-01-10T05:21:54.951Z,996.37
2018-01-10T05:22:54.953Z,996.28
2018-01-10T05:23:54.937Z,996.34
2018-01-10T05:24:54.929Z,996.31
2018-01-10T05:25:54.926Z,996.33
2018-01-10T05:26:54.916Z,996.34
2018-01-10T05:27:54.909Z,996.36
2018-01-10T05:28:54.900Z,996.37
2018-01-10T05:29:54.896Z,996.34
2018-01-10T05:30:54.886Z,996.32
2018-01-10T05:31:54.879Z,996.33
2018-01-10T05:32:54.871Z,996.32
2018-01-10T05:33:54.904Z,996.34
2018-01-10T05:34:54.858Z,996.38
2018-01-10T05:35:54.848Z,996.36
2018-01-10T05:36:54.842Z,996.36
2018-01-10T05:37:54.834Z,996.33
2018-01-10T05:38:54.829Z,996.34
2018-01-10T05:39:54.820Z,996.36
2018-01-10T05:40:54.811Z,996.37
2018-01-10T05:41:54.818Z,996.34
2018-01-10T05:42:54.799Z,996.34
2018-01-10T05:43:54.789Z,996.34
2018-01-10T05:44:56.760Z,996.36
2018-01-10T05:45:54.786Z,996.35
2018-01-10T05:46:54.778Z,996.34
2018-01-10T05:47:54.763Z,996.33
2018-01-10T05:48:54.754Z,996.32
2018-01-10T05:49:54.764Z,996.30
2018-01-10T05:50:54.737Z,996.30
2018-01-10T05:51:54.731Z,996.33
2018-01-10T05:52:54.722Z,996.34
2018-01-10T05:53:54.720Z,996.30
2018-01-10T05:54:54.708Z,996.38
2018-01-10T05:55:54.699Z,996.33
2018-01-10T05:56:54.698Z,996.35
2018-01-10T05:57:54.717Z,996.36
2018-01-10T05:58:54.677Z,996.34
2018-01-10T05:59:54.670Z,996.39
2018-01-10T06:00:54.665Z,996.40
2018-01-10T06:01:54.696Z,996.41
2018-01-10T06:02:54.678Z,996.42
2018-01-10T06:03:54.649Z,996.40
2018-01-10T06:04:54.642Z,996.39
2018-01-10T06:05:54.625Z,996.41
2018-01-10T06:06:54.618Z,996.41
2018-01-10T06:07:54.611Z,996.41
2018-01-10T06:08:54.602Z,996.42
2018-01-10T06:09:54.593Z,996.36
2018-01-10T06:10:54.586Z,996.33
2018-01-10T06:11:54.580Z,996.34
2018-01-10T06:12:54.573Z,996.33
2018-01-10T06:13:54.563Z,996.30
2018-01-10T06:14:54.558Z,996.30
2018-01-10T06:15:54.548Z,996.33
2018-01-10T06:16:54.545Z,996.31
2018-01-10T06:17:54.534Z,996.31
2018-01-10T06:18:54.551Z,996.33
2018-01-10T06:19:54.545Z,996.34
2018-01-10T06:20:54.520Z,996.37
2018-01-10T06:21:54.513Z,996.41
2018-01-10T06:22:54.497Z,996.43
2018-01-10T06:23:54.491Z,996.42
2018-01-10T06:24:54.493Z,996.38
2018-01-10T06:25:54.655Z,996.40
2018-01-10T06:26:54.484Z,996.43
2018-01-10T06:27:54.624Z,996.39
2018-01-10T06:28:54.474Z,996.42
2018-01-10T06:29:54.444Z,996.43
2018-01-10T06:30:54.629Z,996.38
2018-01-10T06:31:54.437Z,996.45
2018-01-10T06:32:54.511Z,996.45
2018-01-10T06:33:54.410Z,996.46
2018-01-10T06:34:54.402Z,996.45
2018-01-10T06:35:54.406Z,996.44
2018-01-10T06:36:54.524Z,996.46
2018-01-10T06:37:54.390Z,996.46
2018-01-10T06:38:54.459Z,996.44
2018-01-10T06:39:54.386Z,996.41
2018-01-10T06:40:54.381Z,996.42
2018-01-10T06:41:54.349Z,996.39
2018-01-10T06:42:54.341Z,996.36
2018-01-10T06:43:54.335Z,996.36
2018-01-10T06:44:54.325Z,996.37
2018-01-10T06:45:54.320Z,996.30
2018-01-10T06:46:54.313Z,996.31
2018-01-10T06:47:54.314Z,996.28
2018-01-10T06:48:54.306Z,996.31
2018-01-10T06:49:54.299Z,996.31
2018-01-10T06:50:54.370Z,996.31
2018-01-10T06:51:54.276Z,996.39
2018-01-10T06:52:54.266Z,996.35
2018-01-10T06:53:54.258Z,996.34
2018-01-10T06:54:54.250Z,996.32
2018-01-10T06:55:54.244Z,996.31
2018-01-10T06:56:54.235Z,996.34
2018-01-10T06:57:54.259Z,996.33
2018-01-10T06:58:54.226Z,996.40
2018-01-10T06:59:54.213Z,996.40
2018-01-10T07:00:54.206Z,996.42
2018-01-10T07:01:54.222Z,996.35
2018-01-10T07:02:54.191Z,996.39
2018-01-10T07:03:54.184Z,996.38
2018-01-10T07:04:54.176Z,996.41
2018-01-10T07:05:54.179Z,996.46
2018-01-10T07:06:54.160Z,996.46
2018-01-10T07:07:54.154Z,996.50
2018-01-10T07:08:54.145Z,996.55
2018-01-10T07:09:54.136Z,996.58
2018-01-10T07:10:54.132Z,996.58
2018-01-10T07:11:54.124Z,996.63
2018-01-10T07:12:54.114Z,996.65
2018-01-10T07:13:54.106Z,996.71
2018-01-10T07:14:54.098Z,996.69
2018-01-10T07:15:54.097Z,996.70
2018-01-10T07:16:54.084Z,996.67
2018-01-10T07:17:54.078Z,996.71
2018-01-10T07:18:54.071Z,996.70
2018-01-10T07:19:54.072Z,996.74
2018-01-10T07:20:54.053Z,996.70
2018-01-10T07:21:54.046Z,996.71
2018-01-10T07:22:54.040Z,996.71
2018-01-10T07:23:54.032Z,996.75
2018-01-10T07:24:54.022Z,996.73
2018-01-10T07:25:54.015Z,996.74
2018-01-10T07:26:54.012Z,996.75
2018-01-10T07:27:53.999Z,996.76
2018-01-10T07:28:53.994Z,996.73
2018-01-10T07:29:53.997Z,996.71
2018-01-10T07:30:53.977Z,996.76
2018-01-10T07:31:53.967Z,996.71
2018-01-10T07:32:53.961Z,996.72
2018-01-10T07:33:53.953Z,996.68
2018-01-10T07:34:53.948Z,996.67
2018-01-10T07:35:53.937Z,996.68
2018-01-10T07:36:53.930Z,996.65
2018-01-10T07:37:53.925Z,996.61
2018-01-10T07:38:53.913Z,996.63
2018-01-10T07:39:53.906Z,996.64
2018-01-10T07:40:53.898Z,996.61
2018-01-10T07:41:53.930Z,996.58
2018-01-10T07:42:53.881Z,996.62
2018-01-10T07:43:53.879Z,996.64
2018-01-10T07:44:53.866Z,996.63
2018-01-10T07:45:53.865Z,996.69
2018-01-10T07:46:53.850Z,996.65
2018-01-10T07:47:53.840Z,996.68
2018-01-10T07:48:53.836Z,996.68
2018-01-10T07:49:53.830Z,996.65
2018-01-10T07:50:53.818Z,996.69
2018-01-10T07:51:53.811Z,996.76
2018-01-10T07:52:53.802Z,996.76
2018-01-10T07:53:53.800Z,996.72
2018-01-10T07:54:53.787Z,996.72
2018-01-10T07:55:53.777Z,996.69
2018-01-10T07:56:53.773Z,996.68
2018-01-10T07:57:53.764Z,996.73
2018-01-10T07:58:53.756Z,996.74
2018-01-10T07:59:53.745Z,996.77
2018-01-10T08:00:53.740Z,996.75
2018-01-10T08:01:53.732Z,996.75
2018-01-10T08:02:53.724Z,996.72
2018-01-10T08:03:53.715Z,996.75
2018-01-10T08:04:53.708Z,996.78
2018-01-10T08:05:53.700Z,996.77
2018-01-10T08:06:53.693Z,996.77
2018-01-10T08:07:53.683Z,996.80
2018-01-10T08:08:53.677Z,996.84
2018-01-10T08:09:53.670Z,996.82
2018-01-10T08:10:53.663Z,996.83
2018-01-10T08:11:53.656Z,996.78
2018-01-10T08:12:53.648Z,996.79
2018-01-10T08:13:53.639Z,996.80
2018-01-10T08:14:53.633Z,996.82
2018-01-10T08:15:53.627Z,996.79
2018-01-10T08:16:53.616Z,996.83
2018-01-10T08:17:53.608Z,996.81
2018-01-10T08:18:53.603Z,996.84
2018-01-10T08:19:53.597Z,996.82
2018-01-10T08:20:53.586Z,996.85
2018-01-10T08:21:53.579Z,996.85
2018-01-10T08:22:53.572Z,996.83
2018-01-10T08:23:53.564Z,996.85
2018-01-10T08:24:53.561Z,996.84
2018-01-10T08:25:53.550Z,996.84
2018-01-10T08:26:53.556Z,996.85
2018-01-10T08:27:53.534Z,996.82
2018-01-10T08:28:53.528Z,996.79
2018-01-10T08:29:53.538Z,996.81
2018-01-10T08:30:53.512Z,996.78
2018-01-10T08:31:53.503Z,996.78
2018-01-10T08:32:53.499Z,996.78
2018-01-10T08:33:53.492Z,996.79
2018-01-10T08:34:53.481Z,996.79
2018-01-10T08:35:53.472Z,996.74
2018-01-10T08:36:53.463Z,996.81
2018-01-10T08:37:53.461Z,996.82
2018-01-10T08:38:53.485Z,996.82
2018-01-10T08:39:53.446Z,996.79
2018-01-10T08:40:53.434Z,996.81
2018-01-10T08:41:53.427Z,996.79
2018-01-10T08:42:53.419Z,996.83
2018-01-10T08:43:53.413Z,996.84
2018-01-10T08:44:53.403Z,996.82
2018-01-10T08:45:53.398Z,996.84
2018-01-10T08:46:53.390Z,996.81
2018-01-10T08:47:53.379Z,996.85
2018-01-10T08:48:53.373Z,996.82
2018-01-10T08:49:53.377Z,996.81
2018-01-10T08:50:53.359Z,996.83
2018-01-10T08:51:53.348Z,996.85
2018-01-10T08:52:53.341Z,996.86
2018-01-10T08:53:53.336Z,996.85
2018-01-10T08:54:53.326Z,996.89
2018-01-10T08:55:53.318Z,996.85
2018-01-10T08:56:53.310Z,996.84
2018-01-10T08:57:53.304Z,996.83
2018-01-10T08:58:53.300Z,996.84
2018-01-10T08:59:54.082Z,996.82
2018-01-10T09:00:53.282Z,996.81
2018-01-10T09:01:53.273Z,996.82
2018-01-10T09:02:53.269Z,996.83
2018-01-10T09:03:53.258Z,996.84
2018-01-10T09:04:53.251Z,996.83
2018-01-10T09:05:53.246Z,996.83
2018-01-10T09:06:53.234Z,996.87
2018-01-10T09:07:53.227Z,996.86
2018-01-10T09:08:53.219Z,996.89
2018-01-10T09:09:53.219Z,996.89
2018-01-10T09:10:53.204Z,996.85
2018-01-10T09:11:53.196Z,996.82
2018-01-10T09:12:53.190Z,996.79
2018-01-10T09:13:53.185Z,996.76
2018-01-10T09:14:53.173Z,996.81
2018-01-10T09:15:53.167Z,996.85
2018-01-10T09:16:53.159Z,996.84
2018-01-10T09:17:53.151Z,996.88
2018-01-10T09:18:53.145Z,996.87
2018-01-10T09:19:53.136Z,996.87
2018-01-10T09:20:53.130Z,996.91
2018-01-10T09:21:53.122Z,996.89
2018-01-10T09:22:53.115Z,996.86
2018-01-10T09:23:53.106Z,996.85
2018-01-10T09:24:53.098Z,996.87
2018-01-10T09:25:53.099Z,996.84
2018-01-10T09:26:53.095Z,996.86
2018-01-10T09:27:53.095Z,996.85
2018-01-10T09:28:53.085Z,996.87
2018-01-10T09:29:53.077Z,996.86
2018-01-10T09:30:53.070Z,996.86
2018-01-10T09:31:53.048Z,996.85
2018-01-10T09:32:53.041Z,996.84
2018-01-10T09:33:53.049Z,996.83
2018-01-10T09:34:53.197Z,996.90
2018-01-10T09:35:53.033Z,996.87
2018-01-10T09:36:53.014Z,996.84
2018-01-10T09:37:53.004Z,996.83
2018-01-10T09:38:53.015Z,996.81
2018-01-10T09:39:52.991Z,996.75
2018-01-10T09:40:52.985Z,996.78
2018-01-10T09:41:52.976Z,996.79
2018-01-10T09:42:52.983Z,996.75
2018-01-10T09:43:52.959Z,996.76
2018-01-10T09:44:52.955Z,996.74
2018-01-10T09:45:52.947Z,996.72
2018-01-10T09:46:52.940Z,996.73
2018-01-10T09:47:52.930Z,996.73
2018-01-10T09:48:52.923Z,996.75
2018-01-10T09:49:52.919Z,996.73
2018-01-10T09:50:52.912Z,996.69
2018-01-10T09:51:52.913Z,996.70
2018-01-10T09:52:52.893Z,996.66
2018-01-10T09:53:52.887Z,996.70
2018-01-10T09:54:52.879Z,996.68
2018-01-10T09:55:52.894Z,996.69
2018-01-10T09:56:52.892Z,996.70
2018-01-10T09:57:52.870Z,996.64
2018-01-10T09:58:52.860Z,996.70
2018-01-10T09:59:52.846Z,996.68
2018-01-10T10:00:52.865Z,996.66
2018-01-10T10:01:52.827Z,996.68
2018-01-10T10:02:52.823Z,996.63
2018-01-10T10:03:52.817Z,996.62
2018-01-10T10:04:52.815Z,996.62
2018-01-10T10:05:52.811Z,996.65
2018-01-10T10:06:52.794Z,996.63
2018-01-10T10:07:52.783Z,996.62
2018-01-10T10:08:52.775Z,996.62
2018-01-10T10:09:52.772Z,996.61
2018-01-10T10:10:52.777Z,996.60
2018-01-10T10:11:52.849Z,996.58
2018-01-10T10:12:52.962Z,996.57
2018-01-10T10:13:53.635Z,996.57
2018-01-10T10:14:52.748Z,996.60
2018-01-10T10:15:52.737Z,996.58
2018-01-10T10:16:52.845Z,996.56
2018-01-10T10:17:52.904Z,996.59
2018-01-10T10:18:52.879Z,996.55
2018-01-10T10:19:52.730Z,996.50
2018-01-10T10:20:52.920Z,996.53
2018-01-10T10:21:52.755Z,996.51
2018-01-10T10:22:53.043Z,996.48
2018-01-10T10:23:52.815Z,996.46
2018-01-10T10:24:52.660Z,996.45
2018-01-10T10:25:52.686Z,996.45
2018-01-10T10:26:52.925Z,996.39
2018-01-10T10:27:52.853Z,996.37
2018-01-10T10:28:52.884Z,996.33
2018-01-10T10:29:53.587Z,996.35
2018-01-10T10:30:52.633Z,996.32
2018-01-10T10:31:52.628Z,996.32
2018-01-10T10:32:52.606Z,996.31
2018-01-10T10:33:52.598Z,996.30
2018-01-10T10:34:53.634Z,996.30
2018-01-10T10:35:52.667Z,996.27
2018-01-10T10:36:52.586Z,996.25
2018-01-10T10:37:52.571Z,996.24
2018-01-10T10:38:52.566Z,996.19
2018-01-10T10:39:52.559Z,996.20
2018-01-10T10:40:52.556Z,996.21
2018-01-10T10:41:52.538Z,996.19
2018-01-10T10:42:52.533Z,996.13
2018-01-10T10:43:52.568Z,996.15
2018-01-10T10:44:52.520Z,996.15
2018-01-10T10:45:52.509Z,996.16
2018-01-10T10:46:52.501Z,996.18
2018-01-10T10:47:52.494Z,996.20
2018-01-10T10:48:52.556Z,996.19
2018-01-10T10:49:52.486Z,996.19
2018-01-10T10:50:52.497Z,996.19
2018-01-10T10:51:52.467Z,996.19
2018-01-10T10:52:52.482Z,996.15
2018-01-10T10:53:52.460Z,996.14
2018-01-10T10:54:52.474Z,996.13
2018-01-10T10:55:52.439Z,996.10
2018-01-10T10:56:52.430Z,996.10
2018-01-10T10:57:52.424Z,996.11
2018-01-10T10:58:52.418Z,996.09
2018-01-10T10:59:52.410Z,996.06
2018-01-10T11:00:52.413Z,996.05
2018-01-10T11:01:52.397Z,996.03
2018-01-10T11:02:52.398Z,995.99
2018-01-10T11:03:52.379Z,996.01
2018-01-10T11:04:52.376Z,996.00
2018-01-10T11:05:52.367Z,995.99
2018-01-10T11:06:52.407Z,995.99
2018-01-10T11:07:52.354Z,995.95
2018-01-10T11:08:52.347Z,995.91
2018-01-10T11:09:52.345Z,995.89
2018-01-10T11:10:52.334Z,995.92
2018-01-10T11:11:52.330Z,995.91
2018-01-10T11:12:52.428Z,995.89
2018-01-10T11:13:52.318Z,995.88
2018-01-10T11:14:52.319Z,995.87
2018-01-10T11:15:52.304Z,995.92
2018-01-10T11:16:52.290Z,995.86
2018-01-10T11:17:52.385Z,995.82
2018-01-10T11:18:52.284Z,995.85
2018-01-10T11:19:52.330Z,995.83
2018-01-10T11:20:53.115Z,995.79
2018-01-10T11:21:52.258Z,995.77
2018-01-10T11:22:52.251Z,995.76
2018-01-10T11:23:52.241Z,995.78
2018-01-10T11:24:52.268Z,995.79
2018-01-10T11:25:52.231Z,995.76
2018-01-10T11:26:52.228Z,995.78
2018-01-10T11:27:52.320Z,995.77
2018-01-10T11:28:52.222Z,995.75
2018-01-10T11:29:52.213Z,995.77
2018-01-10T11:30:52.200Z,995.73
2018-01-10T11:31:52.190Z,995.78
2018-01-10T11:32:52.213Z,995.77
2018-01-10T11:33:52.175Z,995.77
2018-01-10T11:34:52.397Z,995.73
2018-01-10T11:35:52.162Z,995.76
2018-01-10T11:36:52.179Z,995.75
2018-01-10T11:37:52.151Z,995.72
2018-01-10T11:38:52.146Z,995.72
2018-01-10T11:39:52.144Z,995.64
2018-01-10T11:40:52.139Z,995.66
2018-01-10T11:41:52.446Z,995.66
2018-01-10T11:42:52.150Z,995.62
2018-01-10T11:43:52.180Z,995.61
2018-01-10T11:44:52.102Z,995.64
2018-01-10T11:45:52.120Z,995.63
2018-01-10T11:46:52.090Z,995.60
2018-01-10T11:47:52.082Z,995.61
2018-01-10T11:48:52.165Z,995.58
2018-01-10T11:49:52.069Z,995.63
2018-01-10T11:50:52.063Z,995.57
2018-01-10T11:51:52.054Z,995.57
2018-01-10T11:52:52.048Z,995.54
2018-01-10T11:53:52.059Z,995.52
2018-01-10T11:54:52.040Z,995.48
2018-01-10T11:55:52.029Z,995.49
2018-01-10T11:56:52.036Z,995.49
2018-01-10T11:57:52.036Z,995.47
2018-01-10T11:58:52.011Z,995.45
2018-01-10T11:59:52.053Z,995.42
2018-01-10T12:00:52.006Z,995.38
2018-01-10T12:01:51.993Z,995.41
2018-01-10T12:02:51.982Z,995.39
2018-01-10T12:03:51.976Z,995.34
2018-01-10T12:04:51.969Z,995.33
2018-01-10T12:05:51.963Z,995.28
2018-01-10T12:06:51.986Z,995.27
2018-01-10T12:07:51.956Z,995.27
2018-01-10T12:08:51.943Z,995.25
2018-01-10T12:09:51.975Z,995.24
2018-01-10T12:10:52.034Z,995.25
2018-01-10T12:11:51.924Z,995.23
2018-01-10T12:12:51.917Z,995.21
2018-01-10T12:13:51.912Z,995.22
2018-01-10T12:14:51.913Z,995.18
2018-01-10T12:15:51.899Z,995.24
2018-01-10T12:16:51.901Z,995.20
2018-01-10T12:17:51.888Z,995.19
2018-01-10T12:18:51.898Z,995.16
2018-01-10T12:19:51.917Z,995.14
2018-01-10T12:20:51.872Z,995.14
2018-01-10T12:21:51.863Z,995.11
2018-01-10T12:22:51.858Z,995.04
2018-01-10T12:23:51.848Z,995.07
2018-01-10T12:24:51.912Z,995.11
2018-01-10T12:25:51.842Z,995.06
2018-01-10T12:26:51.833Z,995.04
2018-01-10T12:27:51.838Z,995.07
2018-01-10T12:28:51.819Z,995.04
2018-01-10T12:29:51.825Z,995.01
2018-01-10T12:30:51.809Z,994.97
2018-01-10T12:31:51.799Z,994.91
2018-01-10T12:32:51.794Z,994.89
2018-01-10T12:33:51.788Z,994.86
2018-01-10T12:34:51.781Z,994.84
2018-01-10T12:35:51.782Z,994.85
2018-01-10T12:36:51.772Z,994.79
2018-01-10T12:37:52.012Z,994.83
2018-01-10T12:38:51.776Z,994.81
2018-01-10T12:39:51.750Z,994.80
2018-01-10T12:40:51.762Z,994.77
2018-01-10T12:41:51.750Z,994.77
2018-01-10T12:42:51.743Z,994.76
2018-01-10T12:43:51.728Z,994.76
2018-01-10T12:44:51.727Z,994.79
2018-01-10T12:45:51.717Z,994.78
2018-01-10T12:46:51.709Z,994.79
2018-01-10T12:47:51.702Z,994.83
2018-01-10T12:48:51.697Z,994.85
2018-01-10T12:49:51.695Z,994.84
2018-01-10T12:50:51.685Z,994.85
2018-01-10T12:51:51.690Z,994.82
2018-01-10T12:52:51.676Z,994.82
2018-01-10T12:53:51.748Z,994.84
2018-01-10T12:54:51.663Z,994.83
2018-01-10T12:55:51.715Z,994.84
2018-01-10T12:56:51.650Z,994.87
2018-01-10T12:57:51.648Z,994.84
2018-01-10T12:58:51.639Z,994.84
2018-01-10T12:59:51.633Z,994.83
2018-01-10T13:00:51.633Z,994.83
2018-01-10T13:01:51.622Z,994.77
2018-01-10T13:02:51.619Z,994.76
2018-01-10T13:03:51.623Z,994.76
2018-01-10T13:04:51.836Z,994.73
2018-01-10T13:05:51.596Z,994.76
2018-01-10T13:06:51.611Z,994.73
2018-01-10T13:07:51.585Z,994.70
2018-01-10T13:08:51.828Z,994.72
2018-01-10T13:09:51.635Z,994.72
2018-01-10T13:10:51.568Z,994.71
2018-01-10T13:11:51.558Z,994.71
2018-01-10T13:12:51.556Z,994.68
2018-01-10T13:13:51.548Z,994.67
2018-01-10T13:14:51.544Z,994.68
2018-01-10T13:15:51.532Z,994.71
2018-01-10T13:16:51.537Z,994.68
2018-01-10T13:17:51.523Z,994.66
2018-01-10T13:18:51.517Z,994.64
2018-01-10T13:19:51.528Z,994.67
2018-01-10T13:20:51.504Z,994.69
2018-01-10T13:21:51.641Z,994.65
2018-01-10T13:22:51.499Z,994.66
2018-01-10T13:23:51.482Z,994.66
2018-01-10T13:24:51.478Z,994.64